sensor_id;sensor_type;location;lat;lon;timestamp;P1;durP1;ratioP1;P2;durP2;ratioP2
23498;SDS011;11926;48.120;11.562;2022-09-17T00:01:29;12.32;;;6.70;;
23498;SDS011;11926;48.120;11.562;2022-09-17T00:04:20;8.43;;;5.60;;
23498;SDS011;11926;48.120;11.562;2022-09-17T00:07:08;10.00;;;6.78;;
23498;SDS011;11926;48.120;11.562;2022-09-17T00:09:58;9.00;;;5.80;;
23498;SDS011;11926;48.120;11.562;2022-09-17T00:12:46;11.52;;;5.68;;
23498;SDS011;11926;48.120;11.562;2022-09-17T00:15:38;8.63;;;5.68;;
23498;SDS011;11926;48.120;11.562;2022-09-17T00:18:28;8.90;;;4.70;;
23498;SDS011;11926;48.120;11.562;2022-09-17T00:21:17;9.63;;;6.00;;
23498;SDS011;11926;48.120;11.562;2022-09-17T00:24:09;8.18;;;4.88;;
23498;SDS011;11926;48.120;11.562;2022-09-17T00:27:00;8.57;;;4.40;;
23498;SDS011;11926;48.120;11.562;2022-09-17T00:29:49;5.97;;;3.85;;
23498;SDS011;11926;48.120;11.562;2022-09-17T00:32:37;8.48;;;3.38;;
23498;SDS011;11926;48.120;11.562;2022-09-17T00:35:26;9.02;;;3.92;;
23498;SDS011;11926;48.120;11.562;2022-09-17T00:38:17;8.60;;;3.47;;
23498;SDS011;11926;48.120;11.562;2022-09-17T00:41:06;5.13;;;2.95;;
23498;SDS011;11926;48.120;11.562;2022-09-17T00:43:57;7.03;;;3.15;;
23498;SDS011;11926;48.120;11.562;2022-09-17T00:46:47;5.93;;;3.17;;
23498;SDS011;11926;48.120;11.562;2022-09-17T00:49:36;5.13;;;3.28;;
23498;SDS011;11926;48.120;11.562;2022-09-17T00:52:28;7.40;;;3.10;;
23498;SDS011;11926;48.120;11.562;2022-09-17T00:55:20;7.47;;;3.53;;
23498;SDS011;11926;48.120;11.562;2022-09-17T00:58:11;4.55;;;2.92;;
23498;SDS011;11926;48.120;11.562;2022-09-17T01:01:04;4.68;;;2.78;;
23498;SDS011;11926;48.120;11.562;2022-09-17T01:03:53;5.50;;;2.63;;
23498;SDS011;11926;48.120;11.562;2022-09-17T01:06:42;6.10;;;2.75;;
23498;SDS011;11926;48.120;11.562;2022-09-17T01:09:41;4.97;;;2.38;;
23498;SDS011;11926;48.120;11.562;2022-09-17T01:12:38;6.75;;;2.67;;
23498;SDS011;11926;48.120;11.562;2022-09-17T01:15:41;5.20;;;2.20;;
23498;SDS011;11926;48.120;11.562;2022-09-17T01:18:40;5.60;;;2.40;;
23498;SDS011;11926;48.120;11.562;2022-09-17T01:21:47;3.28;;;2.30;;
23498;SDS011;11926;48.120;11.562;2022-09-17T01:24:44;5.78;;;2.13;;
23498;SDS011;11926;48.120;11.562;2022-09-17T01:27:45;4.40;;;2.08;;
23498;SDS011;11926;48.120;11.562;2022-09-17T01:30:58;5.32;;;2.10;;
23498;SDS011;11926;48.120;11.562;2022-09-17T01:33:54;5.60;;;2.38;;
23498;SDS011;11926;48.120;11.562;2022-09-17T01:36:50;4.35;;;2.30;;
23498;SDS011;11926;48.120;11.562;2022-09-17T01:39:47;4.50;;;2.55;;
23498;SDS011;11926;48.120;11.562;2022-09-17T01:42:42;3.95;;;2.63;;
23498;SDS011;11926;48.120;11.562;2022-09-17T01:45:41;4.80;;;2.40;;
23498;SDS011;11926;48.120;11.562;2022-09-17T01:48:35;4.90;;;2.33;;
23498;SDS011;11926;48.120;11.562;2022-09-17T01:51:29;4.72;;;2.58;;
23498;SDS011;11926;48.120;11.562;2022-09-17T01:54:24;6.22;;;2.70;;
23498;SDS011;11926;48.120;11.562;2022-09-17T01:57:18;5.50;;;2.95;;
23498;SDS011;11926;48.120;11.562;2022-09-17T02:00:13;6.13;;;2.45;;
23498;SDS011;11926;48.120;11.562;2022-09-17T02:03:04;6.68;;;2.30;;
23498;SDS011;11926;48.120;11.562;2022-09-17T02:05:58;4.22;;;2.33;;
23498;SDS011;11926;48.120;11.562;2022-09-17T02:08:52;5.40;;;2.88;;
23498;SDS011;11926;48.120;11.562;2022-09-17T02:11:44;3.67;;;2.13;;
23498;SDS011;11926;48.120;11.562;2022-09-17T02:14:38;4.45;;;2.17;;
23498;SDS011;11926;48.120;11.562;2022-09-17T02:17:33;6.35;;;1.73;;
23498;SDS011;11926;48.120;11.562;2022-09-17T02:23:22;2.25;;;1.48;;
23498;SDS011;11926;48.120;11.562;2022-09-17T02:26:15;3.30;;;1.63;;
23498;SDS011;11926;48.120;11.562;2022-09-17T02:29:08;4.32;;;1.75;;
23498;SDS011;11926;48.120;11.562;2022-09-17T02:34:49;2.97;;;1.45;;
23498;SDS011;11926;48.120;11.562;2022-09-17T02:37:38;4.03;;;1.83;;
23498;SDS011;11926;48.120;11.562;2022-09-17T02:40:30;6.03;;;1.80;;
23498;SDS011;11926;48.120;11.562;2022-09-17T02:43:27;3.13;;;1.80;;
23498;SDS011;11926;48.120;11.562;2022-09-17T02:46:26;3.92;;;2.15;;
23498;SDS011;11926;48.120;11.562;2022-09-17T02:49:29;4.18;;;1.80;;
23498;SDS011;11926;48.120;11.562;2022-09-17T02:52:31;3.80;;;1.52;;
23498;SDS011;11926;48.120;11.562;2022-09-17T02:55:33;2.85;;;1.58;;
23498;SDS011;11926;48.120;11.562;2022-09-17T02:58:29;2.45;;;1.40;;
23498;SDS011;11926;48.120;11.562;2022-09-17T03:01:27;2.80;;;1.48;;
23498;SDS011;11926;48.120;11.562;2022-09-17T03:04:20;3.53;;;1.48;;
23498;SDS011;11926;48.120;11.562;2022-09-17T03:07:10;3.33;;;1.42;;
23498;SDS011;11926;48.120;11.562;2022-09-17T03:09:59;3.55;;;1.98;;
23498;SDS011;11926;48.120;11.562;2022-09-17T03:12:49;2.90;;;1.80;;
23498;SDS011;11926;48.120;11.562;2022-09-17T03:15:40;2.65;;;1.23;;
23498;SDS011;11926;48.120;11.562;2022-09-17T03:18:29;2.92;;;1.40;;
23498;SDS011;11926;48.120;11.562;2022-09-17T03:21:18;2.28;;;1.30;;
23498;SDS011;11926;48.120;11.562;2022-09-17T03:24:08;2.88;;;1.60;;
23498;SDS011;11926;48.120;11.562;2022-09-17T03:26:56;4.07;;;1.50;;
23498;SDS011;11926;48.120;11.562;2022-09-17T03:29:46;2.95;;;1.50;;
23498;SDS011;11926;48.120;11.562;2022-09-17T03:32:35;6.03;;;1.65;;
23498;SDS011;11926;48.120;11.562;2022-09-17T03:35:23;3.75;;;1.70;;
23498;SDS011;11926;48.120;11.562;2022-09-17T03:38:11;2.85;;;1.40;;
23498;SDS011;11926;48.120;11.562;2022-09-17T03:41:01;4.13;;;1.77;;
23498;SDS011;11926;48.120;11.562;2022-09-17T03:43:52;4.30;;;1.58;;
23498;SDS011;11926;48.120;11.562;2022-09-17T03:46:42;3.03;;;1.55;;
23498;SDS011;11926;48.120;11.562;2022-09-17T03:49:31;3.30;;;2.03;;
23498;SDS011;11926;48.120;11.562;2022-09-17T03:52:20;6.53;;;1.85;;
23498;SDS011;11926;48.120;11.562;2022-09-17T03:55:08;2.97;;;1.55;;
23498;SDS011;11926;48.120;11.562;2022-09-17T03:57:57;4.45;;;1.70;;
23498;SDS011;11926;48.120;11.562;2022-09-17T04:00:47;7.90;;;1.60;;
23498;SDS011;11926;48.120;11.562;2022-09-17T04:03:39;3.55;;;1.80;;
23498;SDS011;11926;48.120;11.562;2022-09-17T04:06:27;3.85;;;1.65;;
23498;SDS011;11926;48.120;11.562;2022-09-17T04:09:16;3.25;;;1.60;;
23498;SDS011;11926;48.120;11.562;2022-09-17T04:12:05;4.22;;;1.83;;
23498;SDS011;11926;48.120;11.562;2022-09-17T04:14:53;5.53;;;2.05;;
23498;SDS011;11926;48.120;11.562;2022-09-17T04:17:41;6.55;;;2.13;;
23498;SDS011;11926;48.120;11.562;2022-09-17T04:20:34;4.78;;;1.80;;
23498;SDS011;11926;48.120;11.562;2022-09-17T04:23:24;3.30;;;2.00;;
23498;SDS011;11926;48.120;11.562;2022-09-17T04:26:13;3.35;;;1.80;;
23498;SDS011;11926;48.120;11.562;2022-09-17T04:29:01;4.07;;;2.03;;
23498;SDS011;11926;48.120;11.562;2022-09-17T04:31:51;4.68;;;1.95;;
23498;SDS011;11926;48.120;11.562;2022-09-17T04:34:42;3.70;;;2.17;;
23498;SDS011;11926;48.120;11.562;2022-09-17T04:37:37;4.63;;;2.33;;
23498;SDS011;11926;48.120;11.562;2022-09-17T04:40:27;5.75;;;2.05;;
23498;SDS011;11926;48.120;11.562;2022-09-17T04:43:16;4.10;;;1.80;;
23498;SDS011;11926;48.120;11.562;2022-09-17T04:46:04;4.75;;;2.30;;
23498;SDS011;11926;48.120;11.562;2022-09-17T04:48:54;3.35;;;1.95;;
23498;SDS011;11926;48.120;11.562;2022-09-17T04:51:42;6.15;;;2.28;;
23498;SDS011;11926;48.120;11.562;2022-09-17T04:54:32;7.15;;;2.33;;
23498;SDS011;11926;48.120;11.562;2022-09-17T04:57:20;3.60;;;2.38;;
23498;SDS011;11926;48.120;11.562;2022-09-17T05:00:11;5.30;;;2.28;;
23498;SDS011;11926;48.120;11.562;2022-09-17T05:03:05;5.63;;;2.35;;
23498;SDS011;11926;48.120;11.562;2022-09-17T05:05:55;5.03;;;1.90;;
23498;SDS011;11926;48.120;11.562;2022-09-17T05:08:43;4.53;;;1.98;;
23498;SDS011;11926;48.120;11.562;2022-09-17T05:11:35;8.00;;;2.30;;
23498;SDS011;11926;48.120;11.562;2022-09-17T05:14:26;5.60;;;2.25;;
23498;SDS011;11926;48.120;11.562;2022-09-17T05:17:21;10.20;;;2.30;;
23498;SDS011;11926;48.120;11.562;2022-09-17T05:20:09;9.30;;;2.58;;
23498;SDS011;11926;48.120;11.562;2022-09-17T05:22:58;4.88;;;1.90;;
23498;SDS011;11926;48.120;11.562;2022-09-17T05:25:47;4.45;;;1.70;;
23498;SDS011;11926;48.120;11.562;2022-09-17T05:28:37;6.70;;;1.88;;
23498;SDS011;11926;48.120;11.562;2022-09-17T05:31:25;6.05;;;2.10;;
23498;SDS011;11926;48.120;11.562;2022-09-17T05:34:13;3.72;;;1.90;;
23498;SDS011;11926;48.120;11.562;2022-09-17T05:37:02;3.33;;;1.90;;
23498;SDS011;11926;48.120;11.562;2022-09-17T05:39:51;6.32;;;2.13;;
23498;SDS011;11926;48.120;11.562;2022-09-17T05:42:39;3.67;;;1.70;;
23498;SDS011;11926;48.120;11.562;2022-09-17T05:45:32;5.78;;;2.05;;
23498;SDS011;11926;48.120;11.562;2022-09-17T05:48:22;10.30;;;2.50;;
23498;SDS011;11926;48.120;11.562;2022-09-17T05:51:16;7.35;;;2.75;;
23498;SDS011;11926;48.120;11.562;2022-09-17T05:54:05;6.75;;;2.30;;
23498;SDS011;11926;48.120;11.562;2022-09-17T05:56:53;9.57;;;2.90;;
23498;SDS011;11926;48.120;11.562;2022-09-17T05:59:44;9.30;;;2.58;;
23498;SDS011;11926;48.120;11.562;2022-09-17T06:02:34;7.82;;;2.60;;
23498;SDS011;11926;48.120;11.562;2022-09-17T06:05:24;4.18;;;2.17;;
23498;SDS011;11926;48.120;11.562;2022-09-17T06:08:13;4.38;;;2.13;;
23498;SDS011;11926;48.120;11.562;2022-09-17T06:11:02;7.32;;;2.30;;
23498;SDS011;11926;48.120;11.562;2022-09-17T06:13:51;3.78;;;2.03;;
23498;SDS011;11926;48.120;11.562;2022-09-17T06:16:40;5.43;;;1.75;;
23498;SDS011;11926;48.120;11.562;2022-09-17T06:19:30;6.35;;;2.00;;
23498;SDS011;11926;48.120;11.562;2022-09-17T06:22:19;5.95;;;2.13;;
23498;SDS011;11926;48.120;11.562;2022-09-17T06:25:08;4.32;;;2.10;;
23498;SDS011;11926;48.120;11.562;2022-09-17T06:27:56;9.85;;;2.38;;
23498;SDS011;11926;48.120;11.562;2022-09-17T06:30:45;4.82;;;1.80;;
23498;SDS011;11926;48.120;11.562;2022-09-17T06:33:33;7.53;;;1.83;;
23498;SDS011;11926;48.120;11.562;2022-09-17T06:36:27;9.95;;;1.90;;
23498;SDS011;11926;48.120;11.562;2022-09-17T06:39:15;8.85;;;2.22;;
23498;SDS011;11926;48.120;11.562;2022-09-17T06:42:04;5.40;;;1.63;;
23498;SDS011;11926;48.120;11.562;2022-09-17T06:44:52;4.70;;;1.92;;
23498;SDS011;11926;48.120;11.562;2022-09-17T06:47:45;6.40;;;1.98;;
23498;SDS011;11926;48.120;11.562;2022-09-17T06:50:34;5.93;;;1.95;;
23498;SDS011;11926;48.120;11.562;2022-09-17T06:53:29;7.57;;;1.80;;
23498;SDS011;11926;48.120;11.562;2022-09-17T06:56:17;7.03;;;1.95;;
23498;SDS011;11926;48.120;11.562;2022-09-17T06:59:06;6.35;;;1.80;;
23498;SDS011;11926;48.120;11.562;2022-09-17T07:01:55;5.68;;;1.83;;
23498;SDS011;11926;48.120;11.562;2022-09-17T07:04:43;5.32;;;1.77;;
23498;SDS011;11926;48.120;11.562;2022-09-17T07:07:32;5.10;;;1.70;;
23498;SDS011;11926;48.120;11.562;2022-09-17T07:10:22;4.15;;;1.67;;
23498;SDS011;11926;48.120;11.562;2022-09-17T07:13:13;8.07;;;1.70;;
23498;SDS011;11926;48.120;11.562;2022-09-17T07:16:02;10.73;;;1.63;;
23498;SDS011;11926;48.120;11.562;2022-09-17T07:18:51;6.30;;;1.70;;
23498;SDS011;11926;48.120;11.562;2022-09-17T07:21:40;5.00;;;1.50;;
23498;SDS011;11926;48.120;11.562;2022-09-17T07:24:28;9.25;;;1.90;;
23498;SDS011;11926;48.120;11.562;2022-09-17T07:27:18;8.38;;;1.88;;
23498;SDS011;11926;48.120;11.562;2022-09-17T07:30:07;7.38;;;1.80;;
23498;SDS011;11926;48.120;11.562;2022-09-17T07:33:00;5.43;;;1.48;;
23498;SDS011;11926;48.120;11.562;2022-09-17T07:35:52;9.45;;;1.42;;
23498;SDS011;11926;48.120;11.562;2022-09-17T07:38:42;7.15;;;1.40;;
23498;SDS011;11926;48.120;11.562;2022-09-17T07:41:30;6.40;;;1.55;;
23498;SDS011;11926;48.120;11.562;2022-09-17T07:44:20;5.13;;;1.58;;
23498;SDS011;11926;48.120;11.562;2022-09-17T07:47:08;5.20;;;1.40;;
23498;SDS011;11926;48.120;11.562;2022-09-17T07:49:57;4.15;;;1.25;;
23498;SDS011;11926;48.120;11.562;2022-09-17T07:52:45;4.72;;;1.38;;
23498;SDS011;11926;48.120;11.562;2022-09-17T07:55:35;6.10;;;1.30;;
23498;SDS011;11926;48.120;11.562;2022-09-17T07:58:27;7.25;;;1.08;;
23498;SDS011;11926;48.120;11.562;2022-09-17T08:01:20;7.35;;;1.63;;
23498;SDS011;11926;48.120;11.562;2022-09-17T08:04:09;4.82;;;1.30;;
23498;SDS011;11926;48.120;11.562;2022-09-17T08:06:58;4.75;;;1.30;;
23498;SDS011;11926;48.120;11.562;2022-09-17T08:09:49;7.88;;;1.70;;
23498;SDS011;11926;48.120;11.562;2022-09-17T08:12:37;4.72;;;1.38;;
23498;SDS011;11926;48.120;11.562;2022-09-17T08:15:27;3.90;;;1.48;;
23498;SDS011;11926;48.120;11.562;2022-09-17T08:18:16;9.18;;;1.65;;
23498;SDS011;11926;48.120;11.562;2022-09-17T08:21:06;6.68;;;1.45;;
23498;SDS011;11926;48.120;11.562;2022-09-17T08:23:57;6.05;;;1.38;;
23498;SDS011;11926;48.120;11.562;2022-09-17T08:26:46;7.40;;;1.73;;
23498;SDS011;11926;48.120;11.562;2022-09-17T08:29:35;4.38;;;1.00;;
23498;SDS011;11926;48.120;11.562;2022-09-17T08:32:23;7.38;;;1.27;;
23498;SDS011;11926;48.120;11.562;2022-09-17T08:35:13;5.10;;;1.13;;
23498;SDS011;11926;48.120;11.562;2022-09-17T08:38:03;4.38;;;1.20;;
23498;SDS011;11926;48.120;11.562;2022-09-17T08:40:55;6.97;;;1.45;;
23498;SDS011;11926;48.120;11.562;2022-09-17T08:43:59;5.87;;;1.30;;
23498;SDS011;11926;48.120;11.562;2022-09-17T08:46:57;4.30;;;1.10;;
23498;SDS011;11926;48.120;11.562;2022-09-17T08:49:51;8.10;;;1.55;;
23498;SDS011;11926;48.120;11.562;2022-09-17T08:52:47;4.40;;;1.20;;
23498;SDS011;11926;48.120;11.562;2022-09-17T08:55:49;10.40;;;1.75;;
23498;SDS011;11926;48.120;11.562;2022-09-17T08:58:50;7.05;;;1.15;;
23498;SDS011;11926;48.120;11.562;2022-09-17T09:01:51;9.30;;;1.40;;
23498;SDS011;11926;48.120;11.562;2022-09-17T09:04:55;4.53;;;1.52;;
23498;SDS011;11926;48.120;11.562;2022-09-17T09:07:50;10.70;;;2.10;;
23498;SDS011;11926;48.120;11.562;2022-09-17T09:10:44;7.78;;;1.50;;
23498;SDS011;11926;48.120;11.562;2022-09-17T09:13:38;6.47;;;1.40;;
23498;SDS011;11926;48.120;11.562;2022-09-17T09:16:30;6.95;;;1.20;;
23498;SDS011;11926;48.120;11.562;2022-09-17T09:19:22;5.70;;;1.38;;
23498;SDS011;11926;48.120;11.562;2022-09-17T09:22:13;5.63;;;1.27;;
23498;SDS011;11926;48.120;11.562;2022-09-17T09:25:19;8.13;;;1.33;;
23498;SDS011;11926;48.120;11.562;2022-09-17T09:34:13;7.97;;;1.30;;
23498;SDS011;11926;48.120;11.562;2022-09-17T09:37:07;4.93;;;1.30;;
23498;SDS011;11926;48.120;11.562;2022-09-17T09:40:04;6.80;;;1.63;;
23498;SDS011;11926;48.120;11.562;2022-09-17T09:43:10;7.68;;;1.50;;
23498;SDS011;11926;48.120;11.562;2022-09-17T09:46:11;5.50;;;1.70;;
23498;SDS011;11926;48.120;11.562;2022-09-17T09:49:11;5.78;;;1.67;;
23498;SDS011;11926;48.120;11.562;2022-09-17T09:52:14;8.23;;;1.65;;
23498;SDS011;11926;48.120;11.562;2022-09-17T09:55:22;6.00;;;2.42;;
23498;SDS011;11926;48.120;11.562;2022-09-17T09:58:26;4.82;;;1.30;;
23498;SDS011;11926;48.120;11.562;2022-09-17T10:01:21;4.35;;;1.42;;
23498;SDS011;11926;48.120;11.562;2022-09-17T10:04:15;8.77;;;1.88;;
23498;SDS011;11926;48.120;11.562;2022-09-17T10:07:07;9.52;;;1.38;;
23498;SDS011;11926;48.120;11.562;2022-09-17T10:10:06;7.95;;;1.75;;
23498;SDS011;11926;48.120;11.562;2022-09-17T10:13:04;6.35;;;1.63;;
23498;SDS011;11926;48.120;11.562;2022-09-17T10:15:55;6.15;;;1.40;;
23498;SDS011;11926;48.120;11.562;2022-09-17T10:19:10;6.78;;;1.48;;
23498;SDS011;11926;48.120;11.562;2022-09-17T10:22:05;8.60;;;1.67;;
23498;SDS011;11926;48.120;11.562;2022-09-17T10:25:17;13.88;;;2.10;;
23498;SDS011;11926;48.120;11.562;2022-09-17T10:28:26;8.20;;;1.70;;
23498;SDS011;11926;48.120;11.562;2022-09-17T10:31:20;6.20;;;2.17;;
23498;SDS011;11926;48.120;11.562;2022-09-17T10:34:11;5.80;;;1.67;;
23498;SDS011;11926;48.120;11.562;2022-09-17T10:37:31;8.32;;;1.90;;
23498;SDS011;11926;48.120;11.562;2022-09-17T10:40:27;6.32;;;1.98;;
23498;SDS011;11926;48.120;11.562;2022-09-17T10:43:20;6.47;;;1.52;;
23498;SDS011;11926;48.120;11.562;2022-09-17T10:46:10;9.18;;;1.60;;
23498;SDS011;11926;48.120;11.562;2022-09-17T10:49:07;8.05;;;1.70;;
23498;SDS011;11926;48.120;11.562;2022-09-17T10:52:08;7.22;;;1.50;;
23498;SDS011;11926;48.120;11.562;2022-09-17T10:55:04;5.13;;;1.88;;
23498;SDS011;11926;48.120;11.562;2022-09-17T10:58:10;5.80;;;1.58;;
23498;SDS011;11926;48.120;11.562;2022-09-17T11:01:09;7.07;;;1.80;;
23498;SDS011;11926;48.120;11.562;2022-09-17T11:04:17;5.10;;;2.03;;
23498;SDS011;11926;48.120;11.562;2022-09-17T11:07:16;8.23;;;2.05;;
23498;SDS011;11926;48.120;11.562;2022-09-17T11:16:10;7.88;;;1.92;;
23498;SDS011;11926;48.120;11.562;2022-09-17T11:19:10;5.30;;;1.42;;
23498;SDS011;11926;48.120;11.562;2022-09-17T11:22:10;4.57;;;1.25;;
23498;SDS011;11926;48.120;11.562;2022-09-17T11:25:20;2.90;;;1.20;;
23498;SDS011;11926;48.120;11.562;2022-09-17T11:28:17;3.20;;;1.40;;
23498;SDS011;11926;48.120;11.562;2022-09-17T11:31:26;4.32;;;1.42;;
23498;SDS011;11926;48.120;11.562;2022-09-17T11:34:25;3.75;;;1.20;;
23498;SDS011;11926;48.120;11.562;2022-09-17T11:37:19;4.97;;;1.35;;
23498;SDS011;11926;48.120;11.562;2022-09-17T11:40:14;4.50;;;1.20;;
23498;SDS011;11926;48.120;11.562;2022-09-17T11:43:13;4.18;;;1.52;;
23498;SDS011;11926;48.120;11.562;2022-09-17T11:46:11;3.20;;;1.35;;
23498;SDS011;11926;48.120;11.562;2022-09-17T11:49:05;4.78;;;1.20;;
23498;SDS011;11926;48.120;11.562;2022-09-17T11:52:03;2.80;;;1.25;;
23498;SDS011;11926;48.120;11.562;2022-09-17T11:54:56;3.75;;;1.58;;
23498;SDS011;11926;48.120;11.562;2022-09-17T11:57:48;1.63;;;0.90;;
23498;SDS011;11926;48.120;11.562;2022-09-17T12:00:42;3.45;;;1.17;;
23498;SDS011;11926;48.120;11.562;2022-09-17T12:03:39;2.90;;;1.17;;
23498;SDS011;11926;48.120;11.562;2022-09-17T12:06:34;4.07;;;1.35;;
23498;SDS011;11926;48.120;11.562;2022-09-17T12:09:32;3.83;;;1.38;;
23498;SDS011;11926;48.120;11.562;2022-09-17T12:12:25;3.47;;;1.33;;
23498;SDS011;11926;48.120;11.562;2022-09-17T12:15:35;13.13;;;2.00;;
23498;SDS011;11926;48.120;11.562;2022-09-17T12:18:29;5.13;;;1.20;;
23498;SDS011;11926;48.120;11.562;2022-09-17T12:21:29;3.78;;;1.10;;
23498;SDS011;11926;48.120;11.562;2022-09-17T12:24:24;4.28;;;1.08;;
23498;SDS011;11926;48.120;11.562;2022-09-17T12:27:17;4.05;;;1.08;;
23498;SDS011;11926;48.120;11.562;2022-09-17T12:30:15;4.93;;;1.52;;
23498;SDS011;11926;48.120;11.562;2022-09-17T12:33:12;2.63;;;1.35;;
23498;SDS011;11926;48.120;11.562;2022-09-17T12:36:14;4.82;;;1.45;;
23498;SDS011;11926;48.120;11.562;2022-09-17T12:45:22;5.05;;;1.40;;
23498;SDS011;11926;48.120;11.562;2022-09-17T12:48:28;5.18;;;1.30;;
23498;SDS011;11926;48.120;11.562;2022-09-17T12:51:38;4.55;;;1.50;;
23498;SDS011;11926;48.120;11.562;2022-09-17T12:54:38;4.38;;;1.63;;
23498;SDS011;11926;48.120;11.562;2022-09-17T12:57:45;9.85;;;1.40;;
23498;SDS011;11926;48.120;11.562;2022-09-17T13:00:46;4.00;;;1.80;;
23498;SDS011;11926;48.120;11.562;2022-09-17T13:03:39;4.05;;;1.45;;
23498;SDS011;11926;48.120;11.562;2022-09-17T13:06:37;5.22;;;1.48;;
23498;SDS011;11926;48.120;11.562;2022-09-17T13:12:33;6.13;;;1.80;;
23498;SDS011;11926;48.120;11.562;2022-09-17T13:15:41;7.40;;;1.92;;
23498;SDS011;11926;48.120;11.562;2022-09-17T13:18:40;6.05;;;2.13;;
23498;SDS011;11926;48.120;11.562;2022-09-17T13:21:59;5.00;;;1.70;;
23498;SDS011;11926;48.120;11.562;2022-09-17T13:25:01;4.20;;;1.88;;
23498;SDS011;11926;48.120;11.562;2022-09-17T13:28:02;9.40;;;1.90;;
23498;SDS011;11926;48.120;11.562;2022-09-17T13:30:56;7.50;;;2.05;;
23498;SDS011;11926;48.120;11.562;2022-09-17T13:33:50;5.00;;;2.55;;
23498;SDS011;11926;48.120;11.562;2022-09-17T13:36:43;9.10;;;1.95;;
23498;SDS011;11926;48.120;11.562;2022-09-17T13:42:25;6.55;;;1.92;;
23498;SDS011;11926;48.120;11.562;2022-09-17T13:45:17;7.57;;;2.35;;
23498;SDS011;11926;48.120;11.562;2022-09-17T13:48:10;4.10;;;1.40;;
23498;SDS011;11926;48.120;11.562;2022-09-17T13:57:13;4.97;;;1.40;;
23498;SDS011;11926;48.120;11.562;2022-09-17T14:00:04;4.95;;;2.15;;
23498;SDS011;11926;48.120;11.562;2022-09-17T14:02:57;6.13;;;2.38;;
23498;SDS011;11926;48.120;11.562;2022-09-17T14:24:34;2.70;;;0.90;;
23498;SDS011;11926;48.120;11.562;2022-09-17T14:27:40;2.22;;;1.10;;
23498;SDS011;11926;48.120;11.562;2022-09-17T14:30:41;4.55;;;1.10;;
23498;SDS011;11926;48.120;11.562;2022-09-17T14:33:31;4.00;;;1.23;;
23498;SDS011;11926;48.120;11.562;2022-09-17T14:36:22;4.22;;;0.95;;
23498;SDS011;11926;48.120;11.562;2022-09-17T14:39:13;4.53;;;1.45;;
23498;SDS011;11926;48.120;11.562;2022-09-17T14:42:11;4.07;;;1.00;;
23498;SDS011;11926;48.120;11.562;2022-09-17T14:45:12;4.25;;;1.30;;
23498;SDS011;11926;48.120;11.562;2022-09-17T14:54:16;5.45;;;1.80;;
23498;SDS011;11926;48.120;11.562;2022-09-17T14:57:11;6.18;;;1.48;;
23498;SDS011;11926;48.120;11.562;2022-09-17T15:00:14;3.05;;;1.35;;
23498;SDS011;11926;48.120;11.562;2022-09-17T15:03:18;3.80;;;1.20;;
23498;SDS011;11926;48.120;11.562;2022-09-17T15:06:17;2.25;;;0.93;;
23498;SDS011;11926;48.120;11.562;2022-09-17T15:09:13;2.78;;;0.80;;
23498;SDS011;11926;48.120;11.562;2022-09-17T15:12:05;2.30;;;0.90;;
23498;SDS011;11926;48.120;11.562;2022-09-17T15:14:54;1.48;;;0.73;;
23498;SDS011;11926;48.120;11.562;2022-09-17T15:17:45;2.22;;;0.90;;
23498;SDS011;11926;48.120;11.562;2022-09-17T15:20:34;3.38;;;1.25;;
23498;SDS011;11926;48.120;11.562;2022-09-17T15:23:23;3.03;;;0.80;;
23498;SDS011;11926;48.120;11.562;2022-09-17T15:26:16;2.90;;;1.13;;
23498;SDS011;11926;48.120;11.562;2022-09-17T15:29:11;0.95;;;0.50;;
23498;SDS011;11926;48.120;11.562;2022-09-17T15:32:02;3.47;;;1.10;;
23498;SDS011;11926;48.120;11.562;2022-09-17T15:41:11;3.15;;;0.75;;
23498;SDS011;11926;48.120;11.562;2022-09-17T15:44:14;2.75;;;1.15;;
23498;SDS011;11926;48.120;11.562;2022-09-17T15:53:12;1.67;;;0.60;;
23498;SDS011;11926;48.120;11.562;2022-09-17T15:56:08;1.17;;;0.68;;
23498;SDS011;11926;48.120;11.562;2022-09-17T15:59:15;3.55;;;1.00;;
23498;SDS011;11926;48.120;11.562;2022-09-17T16:02:23;2.85;;;0.77;;
23498;SDS011;11926;48.120;11.562;2022-09-17T16:11:21;4.28;;;0.90;;
23498;SDS011;11926;48.120;11.562;2022-09-17T16:14:12;1.50;;;0.57;;
23498;SDS011;11926;48.120;11.562;2022-09-17T16:17:13;1.92;;;0.90;;
23498;SDS011;11926;48.120;11.562;2022-09-17T16:20:18;1.13;;;0.50;;
23498;SDS011;11926;48.120;11.562;2022-09-17T16:23:08;4.32;;;0.70;;
23498;SDS011;11926;48.120;11.562;2022-09-17T16:25:57;4.45;;;0.70;;
23498;SDS011;11926;48.120;11.562;2022-09-17T16:28:45;3.28;;;0.82;;
23498;SDS011;11926;48.120;11.562;2022-09-17T16:31:38;2.25;;;0.68;;
23498;SDS011;11926;48.120;11.562;2022-09-17T16:34:27;1.50;;;0.60;;
23498;SDS011;11926;48.120;11.562;2022-09-17T16:37:15;1.98;;;0.63;;
23498;SDS011;11926;48.120;11.562;2022-09-17T16:40:03;1.75;;;0.52;;
23498;SDS011;11926;48.120;11.562;2022-09-17T16:42:53;1.58;;;0.45;;
23498;SDS011;11926;48.120;11.562;2022-09-17T16:45:42;2.95;;;0.60;;
23498;SDS011;11926;48.120;11.562;2022-09-17T16:48:46;1.52;;;0.60;;
23498;SDS011;11926;48.120;11.562;2022-09-17T16:51:37;0.80;;;0.52;;
23498;SDS011;11926;48.120;11.562;2022-09-17T16:54:25;3.95;;;0.73;;
23498;SDS011;11926;48.120;11.562;2022-09-17T16:57:14;1.98;;;0.98;;
23498;SDS011;11926;48.120;11.562;2022-09-17T17:00:03;1.77;;;0.80;;
23498;SDS011;11926;48.120;11.562;2022-09-17T17:02:54;2.78;;;0.80;;
23498;SDS011;11926;48.120;11.562;2022-09-17T17:05:45;2.75;;;0.70;;
23498;SDS011;11926;48.120;11.562;2022-09-17T17:08:33;1.45;;;0.68;;
23498;SDS011;11926;48.120;11.562;2022-09-17T17:11:22;1.85;;;0.90;;
23498;SDS011;11926;48.120;11.562;2022-09-17T17:14:10;3.55;;;0.80;;
23498;SDS011;11926;48.120;11.562;2022-09-17T17:17:00;1.80;;;0.90;;
23498;SDS011;11926;48.120;11.562;2022-09-17T17:19:49;4.95;;;0.82;;
23498;SDS011;11926;48.120;11.562;2022-09-17T17:22:39;1.17;;;0.73;;
23498;SDS011;11926;48.120;11.562;2022-09-17T17:25:28;5.65;;;1.05;;
23498;SDS011;11926;48.120;11.562;2022-09-17T17:28:18;2.40;;;0.90;;
23498;SDS011;11926;48.120;11.562;2022-09-17T17:31:07;2.38;;;1.00;;
23498;SDS011;11926;48.120;11.562;2022-09-17T17:33:56;5.00;;;0.98;;
23498;SDS011;11926;48.120;11.562;2022-09-17T17:36:47;2.83;;;1.10;;
23498;SDS011;11926;48.120;11.562;2022-09-17T17:39:37;2.88;;;0.80;;
23498;SDS011;11926;48.120;11.562;2022-09-17T17:42:26;3.13;;;1.00;;
23498;SDS011;11926;48.120;11.562;2022-09-17T17:45:21;2.03;;;0.70;;
23498;SDS011;11926;48.120;11.562;2022-09-17T17:48:09;3.75;;;0.70;;
23498;SDS011;11926;48.120;11.562;2022-09-17T17:51:00;1.42;;;0.68;;
23498;SDS011;11926;48.120;11.562;2022-09-17T17:53:50;2.35;;;0.88;;
23498;SDS011;11926;48.120;11.562;2022-09-17T17:56:40;2.03;;;0.70;;
23498;SDS011;11926;48.120;11.562;2022-09-17T17:59:29;2.33;;;0.75;;
23498;SDS011;11926;48.120;11.562;2022-09-17T18:02:17;1.85;;;0.85;;
23498;SDS011;11926;48.120;11.562;2022-09-17T18:05:06;1.75;;;0.70;;
23498;SDS011;11926;48.120;11.562;2022-09-17T18:07:56;1.15;;;0.52;;
23498;SDS011;11926;48.120;11.562;2022-09-17T18:10:50;1.42;;;0.75;;
23498;SDS011;11926;48.120;11.562;2022-09-17T18:13:41;4.10;;;1.10;;
23498;SDS011;11926;48.120;11.562;2022-09-17T18:16:30;2.42;;;0.93;;
23498;SDS011;11926;48.120;11.562;2022-09-17T18:19:19;2.92;;;1.10;;
23498;SDS011;11926;48.120;11.562;2022-09-17T18:22:08;2.75;;;1.13;;
23498;SDS011;11926;48.120;11.562;2022-09-17T18:24:56;2.83;;;1.02;;
23498;SDS011;11926;48.120;11.562;2022-09-17T18:27:45;1.67;;;0.93;;